• Join FlightAware (Why Join?)
  • Login
  • US Flag 
07:41AM EDT


 

Airport Tracker/Info


-or-


 

Live Flight TrackerFlight Track Log ✈ SWA3321 ✈ 26-Jul-2014 ✈ KIND - KTPA

Flight Track Log - Related Links

Times and Time Zones

All times are in EDT time to prevent confusion due to time zone crossing. See the SWA3321 flight status page for this flight to view local times or setup timezone preferences in your user account.

Time Position Orientation Groundspeed Altitude Reporting Facility
EDT Latitude Longitude Course Direction KTS MPH feet Rate Location/Type
05:55PM 39.6500 -86.3333 191° South 237 273 4,600  Level Indianapolis TRACON
05:56PM 39.5719 -86.3247 175° South 278 320 8,500 3,180 Climbing Indianapolis Center
05:57PM 39.4839 -86.3175 176° South 310 357 11,600 3,360 Climbing Indianapolis Center
05:58PM 39.3892 -86.3081 176° South 336 387 15,400 3,480 Climbing Indianapolis Center
05:59PM 39.2850 -86.2969 175° South 365 420 18,900 3,180 Climbing Indianapolis Center
06:00PM 39.1564 -86.3069 183° South 384 442 22,000 2,460 Climbing Indianapolis Center
06:01PM 39.0439 -86.2953 175° South 397 457 24,000 1,380 Climbing Indianapolis Center
06:02PM 38.9194 -86.2769 173° South 434 499 24,900 1,500 Climbing Indianapolis Center
06:03PM 38.7817 -86.2572 174° South 478 550 27,200 1,980 Climbing Indianapolis Center
06:04PM 38.6436 -86.2378 174° South 489 563 29,000 840 Climbing Indianapolis Center
06:05PM 38.5022 -86.2042 169° South 508 585 29,000 720 Level Indianapolis Center
06:06PM 38.3653 -86.1497 163° South 509 586 30,500 1,560 Climbing Indianapolis Center
06:07PM 38.2275 -86.0958 163° South 509 586 32,300 1,740 Climbing Indianapolis Center
06:08PM 38.0886 -86.0425 163° South 512 589 34,200 1,860 Climbing Indianapolis Center
06:09PM 37.9517 -85.9911 164° South 512 589 36,200 1,980 Climbing Indianapolis Center
06:10PM 37.7867 -85.9269 163° South 512 589 38,300 1,860 Climbing Indianapolis Center
06:11PM 37.6514 -85.8753 163° South 509 586 40,100 1,260 Climbing Indianapolis Center
06:12PM 37.5167 -85.8267 164° South 503 579 41,000 420 Climbing Indianapolis Center
06:13PM 37.3847 -85.7781 164° South 498 573 41,000  Level Indianapolis Center
06:14PM 37.2594 -85.7289 163° South 490 564 41,000  Level Indianapolis Center
06:15PM 37.1275 -85.6783 163° South 489 563 41,000  Level Indianapolis Center
06:16PM 36.9953 -85.6300 164° South 489 563 41,000  Level Indianapolis Center
06:17PM 36.8408 -85.5731 164° South 489 563 41,000  Level Indianapolis Center
06:19PM 36.7131 -85.5264 164° South 488 562 41,000  Level Indianapolis Center
06:20PM 36.5842 -85.4772 163° South 486 559 41,000  Level Indianapolis Center
06:21PM 36.4547 -85.4294 163° South 486 559 41,000  Level Indianapolis Center
06:22PM 36.3256 -85.3831 164° South 486 559 41,000  Level Indianapolis Center
06:23PM 36.1964 -85.3364 164° South 486 559 41,000  Level Indianapolis Center
06:24PM 36.0672 -85.2906 164° South 486 559 41,000  Level Indianapolis Center
06:25PM 35.9125 -85.2347 164° South 486 559 41,000  Level Indianapolis Center
06:26PM 35.7844 -85.1892 164° South 486 559 41,000  Level Indianapolis Center
06:27PM 35.6508 -85.1453 165° South 488 562 41,000  Level Atlanta Center
06:28PM 35.5219 -85.0953 162° South 488 562 41,000  Level Atlanta Center
06:29PM 35.3928 -85.0503 164° South 488 562 41,000  Level Atlanta Center
06:30PM 35.2639 -85.0053 164° South 488 562 41,000  Level Atlanta Center
06:31PM 35.1389 -84.9608 164° South 482 555 41,000  Level Atlanta Center
06:32PM 35.0100 -84.9136 163° South 482 555 41,000  Level Atlanta Center
06:33PM 34.8808 -84.8717 165° South 476 548 41,000  Level Atlanta Center
06:34PM 34.7558 -84.8275 164° South 476 548 41,000  Level Atlanta Center
06:35PM 34.6353 -84.7811 162° South 476 548 41,000  Level Atlanta Center
06:36PM 34.5061 -84.7369 164° South 468 539 41,000  Level Atlanta Center
06:37PM 34.3789 -84.6933 164° South 468 539 41,000  Level Atlanta Center
06:38PM 34.2519 -84.6494 164° South 474 545 41,000  Level Atlanta Center
06:39PM 34.1289 -84.6058 164° South 469 540 41,000  Level Atlanta Center
06:40PM 33.9956 -84.5650 166° South 479 551 41,000  Level Atlanta Center
06:41PM 33.8706 -84.5192 163° South 473 544 41,000  Level Atlanta Center
06:42PM 33.7497 -84.4786 164° South 466 536 41,000  Level Atlanta Center
06:43PM 33.6183 -84.4406 166° South 466 536 41,000  Level Atlanta Center
06:44PM 33.5036 -84.4350 178° South 474 545 41,000  Level Atlanta Center
06:45PM 33.3742 -84.4294 178° South 469 540 41,000  Level Atlanta Center
06:46PM 33.2447 -84.4289 180° South 464 534 41,000  Level Atlanta Center
06:47PM 33.1131 -84.4258 179° South 464 534 41,000  Level Atlanta Center
06:48PM 32.9839 -84.4228 179° South 464 534 41,000  Level Atlanta Center
06:49PM 32.8522 -84.4222 180° South 469 540 41,000  Level Atlanta Center
06:50PM 32.7103 -84.4142 177° South 469 540 41,000  Level Atlanta Center
06:51PM 32.5789 -84.4161 181° South 474 545 41,000  Level Atlanta Center
06:52PM 32.4494 -84.4131 179° South 474 545 41,000  Level Atlanta Center
06:53PM 32.3181 -84.4100 179° South 474 545 41,000  Level Atlanta Center
06:55PM 32.0594 -84.4050 179° South 461 531 41,000  Level Jacksonville Center
06:56PM 31.9278 -84.4028 179° South 461 531 41,000  Level Jacksonville Center
06:57PM 31.7983 -84.4008 179° South 461 531 41,000  Level Jacksonville Center
06:58PM 31.6669 -84.3986 179° South 466 536 41,000  Level Jacksonville Center
06:59PM 31.5333 -84.3964 179° South 473 544 41,000  Level Jacksonville Center
07:00PM 31.4064 -84.3628 167° South 478 550 41,000  Level Jacksonville Center
07:01PM 31.2794 -84.3267 166° South 478 550 41,000  Level Jacksonville Center
07:02PM 31.1525 -84.2861 165° South 473 544 41,000  Level Jacksonville Center
07:03PM 31.0131 -84.2453 166° South 473 544 41,000  Level Jacksonville Center
07:04PM 30.8861 -84.2069 165° South 473 544 41,000  Level Jacksonville Center
07:05PM 30.7611 -84.1689 165° South 473 544 41,000  Level Jacksonville Center
07:06PM 30.6364 -84.1336 166° South 468 539 41,000  Level Jacksonville Center
07:07PM 30.5156 -84.0983 166° South 463 533 41,000  Level Jacksonville Center
07:08PM 30.3928 -84.0606 165° South 457 526 41,000  Level Jacksonville Center
07:09PM 30.2697 -84.0253 166° South 457 526 41,000  Level Jacksonville Center
07:10PM 30.1469 -83.9928 167° South 452 520 41,000 -360 Level Jacksonville Center
07:11PM 30.0261 -83.9578 166° South 452 520 40,300 -900 Descending Jacksonville Center
07:12PM 29.9053 -83.9206 165° South 452 520 39,300 -960 Descending Jacksonville Center
07:13PM 29.7867 -83.8761 162° South 452 520 38,400 -960 Descending Jacksonville Center
07:14PM 29.6767 -83.8058 151° Southeast 452 520 37,400 -1,560 Descending Jacksonville Center
07:15PM 29.5644 -83.7331 151° Southeast 452 520 35,300 -2,340 Descending Jacksonville Center
07:16PM 29.4519 -83.6606 151° Southeast 458 527 32,800 -2,700 Descending Jacksonville Center
07:17PM 29.3356 -83.5881 151° Southeast 463 533 30,000 -2,820 Descending Jacksonville Center
07:18PM 29.2233 -83.5136 150° Southeast 463 533 27,200 -2,580 Descending Jacksonville Center
07:19PM 29.1047 -83.4392 151° Southeast 475 547 24,900 -2,220 Descending Jacksonville Center
07:20PM 28.9900 -83.3650 151° Southeast 475 547 22,800 -1,680 Descending Jacksonville Center
07:21PM 28.8858 -83.2981 151° Southeast 458 527 21,600 -1,080 Descending Jacksonville Center
07:22PM 28.7819 -83.2314 151° Southeast 435 501 20,700 -1,800 Descending Jacksonville Center
07:24PM 28.6108 -83.1208 150° Southeast 409 471 16,600 -2,460 Descending Miami Center
07:25PM 28.5092 -83.0581 152° Southeast 393 452 13,700 -1,860 Descending Miami Center
07:26PM 28.4217 -83.0022 151° Southeast 365 420 12,800 -1,620 Descending Miami Center
07:27PM 28.3342 -82.9472 151° Southeast 361 415 10,500 -1,860 Descending Miami Center
07:28PM 28.2728 -82.8844 138° Southeast 311 358 9,100 -1,740 Descending Miami Center
07:29PM 28.2769 -82.7900 87° East 299 344 7,000 -1,500 Descending Miami Center
07:30PM 28.2833 -82.6833 86° East 276 318 6,000 -720 Descending Tampa TRACON
07:31PM 28.2833 -82.6000 90° East 249 287 5,600 -1,140 Descending Tampa TRACON
07:32PM 28.2167 -82.5667 156° South 249 287 3,800 -1,440 Descending Tampa TRACON
07:33PM 28.1500 -82.5333 156° South 239 275 2,800 -1,200 Descending Tampa TRACON
07:34PM 28.1000 -82.5333 180° South 226 260 1,600 -900 Descending Tampa TRACON
07:35PM 28.0500 -82.5333 180° South 151 174 1,200 -600 Descending Tampa TRACON
07:36PM 28.0167 -82.5333 180° South 132 152 500 -720 Descending Tampa TRACON